Time;durP1;ratioP1;P1;durP2;ratioP2;P2;SDS_P1;SDS_P2;PMS_P1;PMS_P2;Temp;Humidity;BMP_temperature;BMP_pressure;BME280_temperature;BME280_humidity;BME280_pressure;Samples;Min_cycle;Max_cycle;Signal;HPM_P1;HPM_P2
2023/09/29 00:01:13;;;;;;;11.13;5.88;;;18.60;99.90;;;;;;5024570;28;20041;-85
2023/09/29 00:03:39;;;;;;;15.23;5.70;;;18.60;99.90;;;;;;5038422;28;20037;-83
2023/09/29 00:06:08;;;;;;;9.30;5.35;;;18.60;99.90;;;;;;5026099;28;20094;-86
2023/09/29 00:08:34;;;;;;;14.30;5.65;;;18.60;99.90;;;;;;5022268;28;20972;-82
2023/09/29 00:11:00;;;;;;;14.20;5.55;;;18.60;99.90;;;;;;5038406;28;20096;-83
2023/09/29 00:13:26;;;;;;;9.35;5.70;;;18.60;99.90;;;;;;5035828;28;20029;-84
2023/09/29 00:15:52;;;;;;;13.25;6.15;;;18.50;99.90;;;;;;5039181;28;20049;-80
2023/09/29 00:18:19;;;;;;;15.45;6.63;;;18.60;99.90;;;;;;5040036;28;20143;-84
2023/09/29 00:20:47;;;;;;;14.75;6.05;;;18.60;99.90;;;;;;5037922;28;20038;-82
2023/09/29 00:23:13;;;;;;;13.07;5.90;;;18.60;99.90;;;;;;5022143;28;20041;-83
2023/09/29 00:25:41;;;;;;;13.80;6.10;;;18.60;99.90;;;;;;5026965;28;20033;-84
2023/09/29 00:28:10;;;;;;;10.55;5.75;;;18.60;99.90;;;;;;5038123;28;20032;-84
2023/09/29 00:30:36;;;;;;;7.95;5.25;;;18.60;99.90;;;;;;5038795;28;20053;-85
2023/09/29 00:33:03;;;;;;;12.77;6.07;;;18.60;99.90;;;;;;5039978;28;20122;-84
2023/09/29 00:35:29;;;;;;;16.63;6.18;;;18.60;99.90;;;;;;5036878;28;20104;-83
2023/09/29 00:37:55;;;;;;;10.13;5.53;;;18.60;99.90;;;;;;5040308;28;20155;-84
2023/09/29 00:40:22;;;;;;;10.82;5.90;;;18.60;99.90;;;;;;5036871;28;20028;-85
2023/09/29 00:42:48;;;;;;;13.63;5.90;;;18.60;99.90;;;;;;5037934;28;20048;-85
2023/09/29 00:45:19;;;;;;;11.63;5.65;;;18.60;99.90;;;;;;5021273;28;20548;-81
2023/09/29 00:47:45;;;;;;;18.92;6.10;;;18.60;99.90;;;;;;5038018;28;20354;-85
2023/09/29 00:50:14;;;;;;;13.60;6.22;;;18.60;99.90;;;;;;5022334;28;20052;-83
2023/09/29 00:52:41;;;;;;;14.10;5.85;;;18.60;99.90;;;;;;5019043;28;20026;-86
2023/09/29 00:55:11;;;;;;;11.07;6.15;;;18.60;99.90;;;;;;5037506;28;20029;-84
2023/09/29 00:57:44;;;;;;;11.88;5.65;;;18.60;99.90;;;;;;5038491;28;20037;-86
2023/09/29 01:00:21;;;;;;;12.25;5.80;;;18.60;99.90;;;;;;5026777;28;20055;-86
2023/09/29 01:02:48;;;;;;;13.43;5.75;;;18.60;99.90;;;;;;5021038;28;20071;-86
2023/09/29 01:05:13;;;;;;;9.95;4.65;;;18.60;99.90;;;;;;5035257;28;20067;-86
2023/09/29 01:07:41;;;;;;;12.63;5.93;;;18.60;99.90;;;;;;5021160;28;20504;-81
2023/09/29 01:10:15;;;;;;;11.77;5.30;;;18.60;99.90;;;;;;5037976;28;20091;-86
2023/09/29 01:12:41;;;;;;;14.20;5.35;;;18.60;99.90;;;;;;5023623;28;20673;-85
2023/09/29 01:15:12;;;;;;;8.23;4.90;;;18.50;99.90;;;;;;5027832;28;20037;-83
2023/09/29 01:17:42;;;;;;;10.50;5.90;;;18.60;99.90;;;;;;5038959;28;20037;-86
2023/09/29 01:20:25;;;;;;;9.25;5.80;;;18.50;99.90;;;;;;5040566;28;20692;-84
2023/09/29 01:22:53;;;;;;;10.25;5.20;;;18.50;99.90;;;;;;5021476;28;20043;-85
2023/09/29 01:25:19;;;;;;;13.13;5.75;;;18.50;99.90;;;;;;5036562;28;20037;-83
2023/09/29 01:27:48;;;;;;;8.73;5.28;;;18.50;99.90;;;;;;5041241;28;20064;-87
2023/09/29 01:30:18;;;;;;;8.02;5.32;;;18.50;99.90;;;;;;5039883;28;20033;-86
2023/09/29 01:32:47;;;;;;;9.75;4.95;;;18.50;99.90;;;;;;5038312;28;20025;-85
2023/09/29 01:35:23;;;;;;;14.52;5.70;;;18.50;99.90;;;;;;5018225;28;20124;-84
2023/09/29 01:37:55;;;;;;;11.63;5.95;;;18.50;99.90;;;;;;5038027;28;20036;-81
2023/09/29 01:40:24;;;;;;;9.35;5.10;;;18.50;99.90;;;;;;5038556;28;20037;-83
2023/09/29 01:42:51;;;;;;;10.63;6.05;;;18.50;99.90;;;;;;5037658;28;20063;-83
2023/09/29 01:45:17;;;;;;;14.15;5.35;;;18.50;99.90;;;;;;5037998;28;20036;-77
2023/09/29 01:47:47;;;;;;;10.23;4.80;;;18.50;99.90;;;;;;5035117;28;20520;-83
2023/09/29 01:50:16;;;;;;;8.90;4.70;;;18.50;99.90;;;;;;5037082;28;20104;-80
2023/09/29 01:52:46;;;;;;;11.80;4.88;;;18.50;99.90;;;;;;5036472;28;20025;-86
2023/09/29 01:55:16;;;;;;;8.88;5.05;;;18.50;99.90;;;;;;5017469;28;20979;-85
2023/09/29 01:57:43;;;;;;;10.85;5.13;;;18.50;99.90;;;;;;5036774;28;20029;-86
2023/09/29 02:00:14;;;;;;;10.90;5.60;;;18.50;99.90;;;;;;5020769;28;20036;-81
2023/09/29 02:02:39;;;;;;;9.57;4.70;;;18.50;99.90;;;;;;5037376;28;20114;-85
2023/09/29 02:05:07;;;;;;;8.30;5.00;;;18.50;99.90;;;;;;5036621;28;20754;-80
2023/09/29 02:07:36;;;;;;;8.60;4.50;;;18.50;99.90;;;;;;5036724;28;20116;-82
2023/09/29 02:10:02;;;;;;;7.60;4.57;;;18.50;99.90;;;;;;5037393;28;20124;-81
2023/09/29 02:12:31;;;;;;;9.52;4.90;;;18.40;99.90;;;;;;5037588;28;20029;-84
2023/09/29 02:14:56;;;;;;;8.23;4.63;;;18.40;99.90;;;;;;5037320;28;20053;-83
2023/09/29 02:17:24;;;;;;;14.70;5.05;;;18.40;99.90;;;;;;5025166;28;20071;-83
2023/09/29 02:19:52;;;;;;;6.05;4.45;;;18.40;99.90;;;;;;5037492;28;20033;-84
2023/09/29 02:22:20;;;;;;;7.55;4.50;;;18.40;99.90;;;;;;5029032;28;20037;-82
2023/09/29 02:24:49;;;;;;;9.85;4.75;;;18.40;99.90;;;;;;5037814;28;20087;-83
2023/09/29 02:27:16;;;;;;;10.23;4.72;;;18.40;99.90;;;;;;5037136;28;20449;-81
2023/09/29 02:29:42;;;;;;;6.43;4.28;;;18.30;99.90;;;;;;5021953;28;20456;-82
2023/09/29 02:32:09;;;;;;;8.98;5.10;;;18.30;99.90;;;;;;5041680;28;20063;-85
2023/09/29 02:34:35;;;;;;;7.88;4.55;;;18.30;99.90;;;;;;5024994;28;20445;-81
2023/09/29 02:37:03;;;;;;;12.02;4.88;;;18.30;99.90;;;;;;5039258;28;20040;-80
2023/09/29 02:39:29;;;;;;;8.90;4.43;;;18.30;99.90;;;;;;5038053;28;20024;-85
2023/09/29 02:41:57;;;;;;;8.07;4.38;;;18.30;99.90;;;;;;5024079;28;20044;-82
2023/09/29 02:44:23;;;;;;;11.98;4.43;;;18.30;99.90;;;;;;5021302;28;20040;-85
2023/09/29 02:46:48;;;;;;;5.85;3.92;;;18.30;99.90;;;;;;5041022;28;20377;-81
2023/09/29 02:49:15;;;;;;;6.30;4.13;;;18.30;99.90;;;;;;5040818;28;20025;-82
2023/09/29 02:51:40;;;;;;;8.32;4.47;;;18.30;99.90;;;;;;5024837;28;20025;-82
2023/09/29 02:54:06;;;;;;;7.38;4.90;;;18.30;99.90;;;;;;5040954;28;20918;-85
2023/09/29 02:56:32;;;;;;;6.35;4.50;;;18.30;99.90;;;;;;5029653;28;20075;-81
2023/09/29 02:58:57;;;;;;;8.30;4.43;;;18.30;99.90;;;;;;5024101;28;20044;-85
2023/09/29 03:01:26;;;;;;;7.90;5.15;;;18.30;99.90;;;;;;5023533;28;20029;-81
2023/09/29 03:03:58;;;;;;;12.05;4.95;;;18.20;99.90;;;;;;5041559;28;21678;-84
2023/09/29 03:06:24;;;;;;;10.98;4.15;;;18.30;99.90;;;;;;5042483;28;20055;-85
2023/09/29 03:08:54;;;;;;;10.07;4.55;;;18.30;99.90;;;;;;5040189;28;20026;-80
2023/09/29 03:11:20;;;;;;;9.20;4.57;;;18.30;99.90;;;;;;5040098;28;20060;-82
2023/09/29 03:13:46;;;;;;;9.93;4.97;;;18.20;99.90;;;;;;5041769;28;20028;-86
2023/09/29 03:16:12;;;;;;;7.50;4.50;;;18.20;99.90;;;;;;5023609;28;20031;-82
2023/09/29 03:18:39;;;;;;;7.82;4.72;;;18.20;99.90;;;;;;5027758;28;20032;-81
2023/09/29 03:21:05;;;;;;;13.30;5.20;;;18.20;99.90;;;;;;5025219;28;20124;-86
2023/09/29 03:23:39;;;;;;;8.02;4.47;;;18.20;99.90;;;;;;5040024;28;20484;-83
2023/09/29 03:26:05;;;;;;;7.50;4.53;;;18.20;99.90;;;;;;5040185;28;20037;-83
2023/09/29 03:28:32;;;;;;;8.30;5.13;;;18.20;99.90;;;;;;5040362;28;20032;-83
2023/09/29 03:31:02;;;;;;;8.98;4.88;;;18.20;99.90;;;;;;5023070;28;20120;-82
2023/09/29 03:33:29;;;;;;;10.38;4.45;;;18.20;99.90;;;;;;5023489;28;20457;-84
2023/09/29 03:35:57;;;;;;;9.02;3.97;;;18.20;99.90;;;;;;5027794;28;20049;-83
2023/09/29 03:38:25;;;;;;;9.05;4.68;;;18.20;99.90;;;;;;5039784;28;20029;-84
2023/09/29 03:40:52;;;;;;;8.40;3.83;;;18.20;99.90;;;;;;5022336;28;21005;-85
2023/09/29 03:43:23;;;;;;;8.93;4.10;;;18.20;99.90;;;;;;5040955;28;20124;-80
2023/09/29 03:45:49;;;;;;;7.18;4.03;;;18.20;99.90;;;;;;5038012;28;20044;-80
2023/09/29 03:48:17;;;;;;;8.18;3.85;;;18.30;99.90;;;;;;5039955;28;20090;-83
2023/09/29 03:50:43;;;;;;;7.50;3.78;;;18.30;99.90;;;;;;5040986;28;20143;-80
2023/09/29 03:53:10;;;;;;;6.88;4.00;;;18.30;99.90;;;;;;5040333;28;20031;-84
2023/09/29 03:55:35;;;;;;;8.38;4.20;;;18.30;99.90;;;;;;5040217;28;20663;-84
2023/09/29 03:58:01;;;;;;;8.52;4.10;;;18.30;99.90;;;;;;5023190;28;20461;-80
2023/09/29 04:00:27;;;;;;;8.00;4.40;;;18.30;99.90;;;;;;5024154;28;22017;-82
2023/09/29 04:02:53;;;;;;;8.25;4.68;;;18.30;99.90;;;;;;5042392;28;20040;-83
2023/09/29 04:05:21;;;;;;;6.47;3.97;;;18.30;99.90;;;;;;5039565;28;20044;-83
2023/09/29 04:07:47;;;;;;;5.70;3.55;;;18.30;99.90;;;;;;5038426;28;20037;-82
2023/09/29 04:10:13;;;;;;;7.88;4.28;;;18.30;99.90;;;;;;5038458;28;20026;-82
2023/09/29 04:12:42;;;;;;;9.10;4.15;;;18.30;99.90;;;;;;5040285;28;20844;-86
2023/09/29 04:15:11;;;;;;;7.65;3.92;;;18.30;99.90;;;;;;5039523;28;20470;-80
2023/09/29 04:17:36;;;;;;;8.65;4.43;;;18.30;99.90;;;;;;5039108;28;20135;-86
2023/09/29 04:20:07;;;;;;;7.65;3.95;;;18.30;99.90;;;;;;5040514;28;20457;-82
2023/09/29 04:22:33;;;;;;;7.28;3.95;;;18.30;99.90;;;;;;5040442;28;20053;-84
2023/09/29 04:24:59;;;;;;;7.18;4.20;;;18.30;99.90;;;;;;5022765;28;20067;-84
2023/09/29 04:27:25;;;;;;;11.25;3.97;;;18.30;99.90;;;;;;5039960;28;20099;-83
2023/09/29 04:29:53;;;;;;;7.82;3.78;;;18.30;99.90;;;;;;5039802;28;20087;-84
2023/09/29 04:32:19;;;;;;;9.27;5.15;;;18.20;99.90;;;;;;5040025;28;20064;-86
2023/09/29 04:34:45;;;;;;;6.72;4.30;;;18.20;99.90;;;;;;5039473;28;20060;-82
2023/09/29 04:37:11;;;;;;;7.85;4.45;;;18.20;99.90;;;;;;5025678;28;20032;-83
2023/09/29 04:39:37;;;;;;;9.00;4.25;;;18.20;99.90;;;;;;5040710;28;20048;-85
2023/09/29 04:42:04;;;;;;;10.68;4.32;;;18.20;99.90;;;;;;5023840;28;20025;-80
2023/09/29 04:44:35;;;;;;;5.03;3.58;;;18.20;99.90;;;;;;5039735;28;20028;-83
2023/09/29 04:47:00;;;;;;;7.10;4.32;;;18.20;99.90;;;;;;5039997;28;20036;-80
2023/09/29 04:49:26;;;;;;;7.13;3.97;;;18.20;99.90;;;;;;5025765;28;20039;-86
2023/09/29 04:51:51;;;;;;;12.48;4.55;;;18.20;99.90;;;;;;5026780;28;20064;-82
2023/09/29 04:54:20;;;;;;;10.95;4.68;;;18.20;99.90;;;;;;5020399;28;20057;-81
2023/09/29 04:56:45;;;;;;;8.27;4.22;;;18.20;99.90;;;;;;5038793;28;20021;-82
2023/09/29 04:59:13;;;;;;;7.32;4.10;;;18.20;99.90;;;;;;5040571;28;21647;-84
2023/09/29 05:01:38;;;;;;;8.30;4.63;;;18.30;99.90;;;;;;5037784;28;20033;-81
2023/09/29 05:04:05;;;;;;;6.85;4.05;;;18.20;99.90;;;;;;5040492;28;20043;-82
2023/09/29 05:06:33;;;;;;;7.68;3.95;;;18.20;99.90;;;;;;5039743;28;20112;-85
2023/09/29 05:08:59;;;;;;;9.70;4.95;;;18.20;99.90;;;;;;5039077;28;20082;-82
2023/09/29 05:11:27;;;;;;;6.72;3.90;;;18.20;99.90;;;;;;5025982;28;20331;-82
2023/09/29 05:13:54;;;;;;;5.72;4.13;;;18.20;99.90;;;;;;5029754;28;20075;-83
2023/09/29 05:16:20;;;;;;;9.95;4.18;;;18.20;99.90;;;;;;5038007;28;20103;-82
2023/09/29 05:18:46;;;;;;;10.85;4.40;;;18.20;99.90;;;;;;5038874;28;20067;-85
2023/09/29 05:21:12;;;;;;;8.07;3.90;;;18.20;99.90;;;;;;5038608;28;20037;-83
2023/09/29 05:23:38;;;;;;;7.50;4.13;;;18.20;99.90;;;;;;5027202;28;20025;-81
2023/09/29 05:26:07;;;;;;;6.10;3.75;;;18.20;99.90;;;;;;5036841;28;20040;-85
2023/09/29 05:28:35;;;;;;;6.10;3.78;;;18.20;99.90;;;;;;5026884;28;20476;-85
2023/09/29 05:31:01;;;;;;;9.60;4.30;;;18.20;99.90;;;;;;5021422;28;20021;-86
2023/09/29 05:33:28;;;;;;;8.43;3.70;;;18.20;99.90;;;;;;5036870;28;20025;-83
2023/09/29 05:35:55;;;;;;;9.75;4.13;;;18.20;99.90;;;;;;5034310;28;20060;-85
2023/09/29 05:38:21;;;;;;;6.07;3.83;;;18.20;99.90;;;;;;5038715;28;20574;-86
2023/09/29 05:40:52;;;;;;;7.30;4.30;;;18.20;99.90;;;;;;5019481;28;20033;-84
2023/09/29 05:43:20;;;;;;;8.68;4.15;;;18.20;99.90;;;;;;5037291;28;20033;-83
2023/09/29 05:45:48;;;;;;;7.55;3.53;;;18.20;99.90;;;;;;5020336;28;20033;-87
2023/09/29 05:48:17;;;;;;;7.07;4.35;;;18.20;99.90;;;;;;5037884;28;20304;-78
2023/09/29 05:50:44;;;;;;;8.93;5.97;;;18.20;99.90;;;;;;5037598;28;20033;-85
2023/09/29 05:53:11;;;;;;;7.75;3.88;;;18.30;99.90;;;;;;5018343;28;20519;-85
2023/09/29 05:55:39;;;;;;;7.30;4.55;;;18.30;99.90;;;;;;5036154;28;20040;-86
2023/09/29 05:58:05;;;;;;;8.00;4.07;;;18.30;99.90;;;;;;5034853;28;20037;-81
2023/09/29 06:00:31;;;;;;;9.48;3.60;;;18.30;99.90;;;;;;5036707;28;20106;-87
2023/09/29 06:03:01;;;;;;;8.85;4.30;;;18.40;99.90;;;;;;5036745;28;20056;-82
2023/09/29 06:05:32;;;;;;;7.78;3.47;;;18.40;99.90;;;;;;5026548;28;20366;-84
2023/09/29 06:07:58;;;;;;;7.55;4.40;;;18.50;99.90;;;;;;5034951;28;20048;-82
2023/09/29 06:10:26;;;;;;;8.77;4.10;;;18.40;99.90;;;;;;5024459;28;20090;-81
2023/09/29 06:12:52;;;;;;;8.80;4.45;;;18.50;99.90;;;;;;5040538;28;20021;-84
2023/09/29 06:15:19;;;;;;;13.00;3.45;;;18.50;99.90;;;;;;5038432;28;20044;-88
2023/09/29 06:17:45;;;;;;;8.75;4.15;;;18.50;99.90;;;;;;5037193;28;20033;-85
2023/09/29 06:20:13;;;;;;;7.95;3.97;;;18.60;99.90;;;;;;5036340;28;20029;-88
2023/09/29 06:22:39;;;;;;;15.77;5.13;;;18.60;99.90;;;;;;5038661;28;20029;-87
2023/09/29 06:25:05;;;;;;;9.52;3.85;;;18.60;99.90;;;;;;5018849;28;20029;-84
2023/09/29 06:27:30;;;;;;;7.90;3.80;;;18.60;99.90;;;;;;5038648;28;20029;-85
2023/09/29 06:29:56;;;;;;;12.13;4.70;;;18.60;99.90;;;;;;5040536;28;20059;-84
2023/09/29 06:32:21;;;;;;;11.32;4.65;;;18.60;99.90;;;;;;5026319;28;20038;-85
2023/09/29 06:34:49;;;;;;;10.38;4.22;;;18.60;99.90;;;;;;5039539;28;20021;-86
2023/09/29 06:37:18;;;;;;;9.45;3.63;;;18.70;99.90;;;;;;5037847;28;20025;-86
2023/09/29 06:39:49;;;;;;;9.70;4.55;;;18.70;99.90;;;;;;5038551;28;20021;-84
2023/09/29 06:42:14;;;;;;;10.00;4.50;;;18.70;99.90;;;;;;5022845;28;20041;-87
2023/09/29 06:44:40;;;;;;;8.48;4.05;;;18.70;99.90;;;;;;5035298;28;20453;-84
2023/09/29 06:47:06;;;;;;;8.05;4.30;;;18.70;99.90;;;;;;5036897;28;20032;-87
2023/09/29 06:49:33;;;;;;;7.55;4.05;;;18.80;99.90;;;;;;5022111;28;20093;-86
2023/09/29 06:52:02;;;;;;;7.57;4.43;;;18.80;99.90;;;;;;5039637;28;20029;-84
2023/09/29 06:54:27;;;;;;;7.75;3.80;;;18.90;99.90;;;;;;5017937;28;20507;-87
2023/09/29 06:56:53;;;;;;;4.82;3.17;;;18.90;99.90;;;;;;5037422;28;20029;-83
2023/09/29 06:59:21;;;;;;;8.50;4.00;;;19.00;99.90;;;;;;5038723;28;20086;-87
2023/09/29 07:01:46;;;;;;;5.30;3.53;;;19.00;99.90;;;;;;5037463;28;20029;-84
2023/09/29 07:04:14;;;;;;;6.88;3.38;;;19.00;99.90;;;;;;5037398;28;20035;-87
2023/09/29 07:06:40;;;;;;;9.60;3.75;;;19.10;99.90;;;;;;5037205;28;20033;-86
2023/09/29 07:09:09;;;;;;;8.77;3.60;;;19.10;99.90;;;;;;5037932;28;20021;-82
2023/09/29 07:11:35;;;;;;;9.23;4.05;;;19.20;99.90;;;;;;5020893;28;20039;-84
2023/09/29 07:14:01;;;;;;;10.90;4.82;;;19.20;99.90;;;;;;5036576;28;20025;-85
2023/09/29 07:16:26;;;;;;;9.48;3.83;;;19.30;99.90;;;;;;5039935;28;20033;-85
2023/09/29 07:18:55;;;;;;;13.80;4.20;;;19.30;99.90;;;;;;5039672;28;20106;-87
2023/09/29 07:21:21;;;;;;;6.18;3.97;;;19.40;99.90;;;;;;5040762;28;20040;-84
2023/09/29 07:23:46;;;;;;;11.82;4.00;;;19.50;99.90;;;;;;5040827;28;20029;-88
2023/09/29 07:26:12;;;;;;;10.23;4.20;;;19.60;99.90;;;;;;5039664;28;20028;-84
2023/09/29 07:28:37;;;;;;;10.02;3.50;;;19.70;99.90;;;;;;5040584;28;20021;-87
2023/09/29 07:31:03;;;;;;;8.57;3.22;;;19.70;99.90;;;;;;5038794;28;20349;-83
2023/09/29 07:33:28;;;;;;;5.78;3.00;;;19.80;99.90;;;;;;5041499;28;20036;-88
2023/09/29 07:35:54;;;;;;;7.07;3.45;;;19.80;99.90;;;;;;5041135;28;20040;-82
2023/09/29 07:38:22;;;;;;;9.38;4.03;;;19.80;99.90;;;;;;5039117;28;20039;-86
2023/09/29 07:40:48;;;;;;;9.82;3.75;;;19.80;99.90;;;;;;5037635;28;20052;-87
2023/09/29 07:43:13;;;;;;;8.13;3.92;;;19.80;99.90;;;;;;5041246;28;20597;-81
2023/09/29 07:45:39;;;;;;;8.52;3.28;;;19.80;99.90;;;;;;5040225;28;20085;-85
2023/09/29 07:48:05;;;;;;;8.93;4.20;;;19.80;99.90;;;;;;5041381;28;20041;-84
2023/09/29 07:50:31;;;;;;;7.28;3.60;;;19.80;99.90;;;;;;5027331;28;20037;-86
2023/09/29 07:52:58;;;;;;;7.30;3.10;;;19.90;99.90;;;;;;5039278;28;20029;-86
2023/09/29 07:55:24;;;;;;;8.70;3.78;;;20.00;99.90;;;;;;5040891;28;20138;-83
2023/09/29 07:57:51;;;;;;;10.45;4.18;;;20.10;99.90;;;;;;5041280;28;20021;-80
2023/09/29 08:00:19;;;;;;;9.70;3.60;;;20.20;99.90;;;;;;5023570;28;20028;-83
2023/09/29 08:02:45;;;;;;;7.82;3.95;;;20.30;99.90;;;;;;5041538;28;20261;-86
2023/09/29 08:05:13;;;;;;;7.03;3.33;;;20.40;99.90;;;;;;5039992;28;20042;-83
2023/09/29 08:07:40;;;;;;;7.38;3.38;;;20.50;99.90;;;;;;5021634;28;20087;-87
2023/09/29 08:10:07;;;;;;;9.23;3.30;;;20.60;99.90;;;;;;5042479;28;20018;-84
2023/09/29 08:12:32;;;;;;;10.50;3.45;;;20.60;99.90;;;;;;5040551;28;20032;-79
2023/09/29 08:15:05;;;;;;;6.90;4.05;;;20.70;99.90;;;;;;5044428;28;20038;-87
2023/09/29 08:17:31;;;;;;;7.07;3.33;;;20.80;99.90;;;;;;5029549;28;20057;-85
2023/09/29 08:19:57;;;;;;;4.82;2.80;;;20.80;99.90;;;;;;5023775;28;20461;-83
2023/09/29 08:22:23;;;;;;;14.20;3.85;;;20.90;99.90;;;;;;5040256;28;20063;-86
2023/09/29 08:24:48;;;;;;;6.75;3.17;;;20.90;99.90;;;;;;5024064;28;20385;-83
2023/09/29 08:27:14;;;;;;;13.80;3.30;;;20.90;99.90;;;;;;5038465;28;20025;-86
2023/09/29 08:29:39;;;;;;;7.35;2.90;;;20.90;99.90;;;;;;5022301;28;20049;-82
2023/09/29 08:32:07;;;;;;;7.30;3.47;;;20.90;99.90;;;;;;5038758;28;20029;-87
2023/09/29 08:34:39;;;;;;;5.63;2.83;;;20.90;99.90;;;;;;5039008;28;20116;-83
2023/09/29 08:37:07;;;;;;;8.15;2.72;;;21.00;99.90;;;;;;5038118;28;20021;-87
2023/09/29 08:39:36;;;;;;;7.55;2.72;;;21.00;99.90;;;;;;5039458;28;20036;-83
2023/09/29 08:42:09;;;;;;;7.15;2.85;;;21.00;99.90;;;;;;5027115;28;20111;-84
2023/09/29 08:44:41;;;;;;;11.93;3.22;;;21.10;99.90;;;;;;5040541;28;20044;-82
2023/09/29 08:47:11;;;;;;;9.10;2.95;;;21.20;99.90;;;;;;5027579;28;20492;-84
2023/09/29 08:49:40;;;;;;;7.32;2.70;;;21.20;99.90;;;;;;5023186;28;20033;-83
2023/09/29 08:52:09;;;;;;;6.38;3.08;;;21.20;99.90;;;;;;5020666;28;20025;-86
2023/09/29 08:54:38;;;;;;;6.68;2.67;;;21.20;99.90;;;;;;5039516;28;20029;-82
2023/09/29 08:57:05;;;;;;;6.25;2.85;;;21.20;99.90;;;;;;5038020;28;20039;-85
2023/09/29 08:59:35;;;;;;;4.25;2.67;;;21.10;99.90;;;;;;5038811;28;20082;-86
2023/09/29 09:02:00;;;;;;;7.60;2.88;;;21.10;99.90;;;;;;5038384;28;20025;-85
2023/09/29 09:04:28;;;;;;;8.50;2.53;;;21.10;99.90;;;;;;5039446;28;20110;-83
2023/09/29 09:06:53;;;;;;;8.15;2.55;;;21.20;99.90;;;;;;5039459;28;20075;-85
2023/09/29 09:09:23;;;;;;;12.73;2.72;;;21.20;99.90;;;;;;5037930;28;20033;-86
2023/09/29 09:11:49;;;;;;;9.57;2.65;;;21.30;99.90;;;;;;5038125;28;20032;-87
2023/09/29 09:14:15;;;;;;;7.82;3.25;;;21.40;99.90;;;;;;5022369;28;20041;-83
2023/09/29 09:16:41;;;;;;;8.10;3.00;;;21.50;99.90;;;;;;5038339;28;20159;-86
2023/09/29 09:19:15;;;;;;;5.95;2.83;;;21.50;99.90;;;;;;5020243;28;20119;-84
2023/09/29 09:21:42;;;;;;;6.78;2.85;;;21.70;99.90;;;;;;5040250;28;20036;-86
2023/09/29 09:24:21;;;;;;;6.57;2.58;;;21.80;99.90;;;;;;5022137;28;20032;-84
2023/09/29 09:26:48;;;;;;;7.43;2.92;;;21.90;99.90;;;;;;5036568;28;20029;-85
2023/09/29 09:29:16;;;;;;;6.10;2.80;;;22.00;99.90;;;;;;5021916;28;20028;-85
2023/09/29 09:31:54;;;;;;;11.10;2.65;;;22.20;99.90;;;;;;5038120;28;20040;-82
2023/09/29 09:34:32;;;;;;;7.10;2.50;;;22.40;99.90;;;;;;5023276;28;20037;-87
2023/09/29 09:37:02;;;;;;;4.65;2.65;;;22.50;99.90;;;;;;5038185;28;20319;-83
2023/09/29 09:39:29;;;;;;;4.03;2.38;;;22.60;99.90;;;;;;5034837;28;20029;-81
2023/09/29 09:41:56;;;;;;;4.20;2.53;;;22.60;99.90;;;;;;5037840;28;20123;-82
2023/09/29 09:44:28;;;;;;;7.40;2.40;;;22.60;99.90;;;;;;5038209;28;20069;-79
2023/09/29 09:47:03;;;;;;;16.02;2.78;;;22.70;99.90;;;;;;5027089;28;20075;-83
2023/09/29 09:49:48;;;;;;;5.15;1.88;;;22.60;99.90;;;;;;5037471;28;20032;-81
2023/09/29 09:52:24;;;;;;;12.25;2.60;;;22.40;99.90;;;;;;5034309;28;20049;-83
2023/09/29 09:54:56;;;;;;;6.55;1.98;;;22.40;99.90;;;;;;5038319;28;20095;-83
2023/09/29 09:57:33;;;;;;;;;;;22.40;99.90;;;;;;5040002;28;20040;-87
2023/09/29 10:00:09;;;;;;;6.13;2.83;;;22.30;99.90;;;;;;5026439;28;20017;-85
2023/09/29 10:02:43;;;;;;;6.35;2.20;;;22.30;99.90;;;;;;5019827;28;20021;-83
2023/09/29 10:05:25;;;;;;;10.95;2.22;;;22.40;99.90;;;;;;5038578;28;20043;-87
2023/09/29 10:07:51;;;;;;;6.53;2.50;;;22.40;99.90;;;;;;5039518;28;20055;-84
2023/09/29 10:10:42;;;;;;;4.07;2.20;;;22.50;99.90;;;;;;5018943;28;20033;-86
2023/09/29 10:13:11;;;;;;;5.47;2.35;;;22.50;99.90;;;;;;5033977;28;20509;-83
2023/09/29 10:15:39;;;;;;;6.55;2.30;;;22.40;99.90;;;;;;5034388;28;20048;-87
2023/09/29 10:18:18;;;;;;;8.25;1.73;;;22.40;99.90;;;;;;5037687;28;20037;-86
2023/09/29 10:20:54;;;;;;;5.05;1.60;;;22.30;99.90;;;;;;5021468;28;20102;-79
2023/09/29 10:23:20;;;;;;;9.90;1.67;;;22.20;99.90;;;;;;5034713;28;20040;-87
2023/09/29 10:25:59;;;;;;;9.18;1.80;;;22.00;99.90;;;;;;5040125;28;20489;-87
2023/09/29 10:28:37;;;;;;;3.72;1.90;;;21.90;99.90;;;;;;5020526;28;20033;-88
2023/09/29 10:31:13;;;;;;;7.47;2.10;;;21.90;99.90;;;;;;5040089;28;20072;-81
2023/09/29 10:33:54;;;;;;;8.40;1.88;;;21.80;99.90;;;;;;5039275;28;20055;-84
2023/09/29 10:36:23;;;;;;;5.32;1.83;;;21.80;99.90;;;;;;5023577;28;20032;-87
2023/09/29 10:38:54;;;;;;;9.45;3.50;;;21.80;99.90;;;;;;5037827;28;20053;-81
2023/09/29 10:41:21;;;;;;;9.30;3.45;;;21.90;99.90;;;;;;5024289;28;20940;-88
2023/09/29 10:43:48;;;;;;;12.05;4.68;;;21.90;99.90;;;;;;5040875;28;20033;-85
2023/09/29 10:46:20;;;;;;;11.18;4.85;;;21.90;99.90;;;;;;5038929;28;20029;-83
2023/09/29 10:48:46;;;;;;;;;;;22.00;99.90;;;;;;5037792;28;20040;-81
2023/09/29 10:51:30;;;;;;;10.35;4.22;;;22.10;99.90;;;;;;5040589;28;19917;-87
2023/09/29 10:54:07;;;;;;;11.32;4.43;;;22.10;99.90;;;;;;5040704;28;20044;-85
2023/09/29 10:56:37;;;;;;;13.85;4.72;;;22.10;99.90;;;;;;5023375;28;20037;-82
2023/09/29 10:59:12;;;;;;;12.20;5.22;;;22.10;99.90;;;;;;5033226;28;20025;-88
2023/09/29 11:01:37;;;;;;;14.68;5.40;;;22.10;99.90;;;;;;5042904;28;20025;-80
2023/09/29 11:04:07;;;;;;;17.30;6.10;;;22.20;99.90;;;;;;5042271;28;20033;-87
2023/09/29 11:06:45;;;;;;;14.65;5.50;;;22.20;99.90;;;;;;5042128;28;20146;-87
2023/09/29 11:09:16;;;;;;;16.45;6.40;;;22.30;99.90;;;;;;5032326;28;20021;-82
2023/09/29 11:11:45;;;;;;;14.82;6.47;;;22.40;99.90;;;;;;5038668;28;20458;-88
2023/09/29 11:14:13;;;;;;;15.15;5.65;;;22.50;99.90;;;;;;5028681;28;20061;-80
2023/09/29 11:16:38;;;;;;;18.48;7.30;;;22.60;99.90;;;;;;5042834;28;20031;-86
2023/09/29 11:19:15;;;;;;;19.63;7.00;;;22.60;99.90;;;;;;5040786;28;20029;-86
2023/09/29 11:21:41;;;;;;;16.95;6.50;;;22.70;99.90;;;;;;5040710;28;20031;-84
2023/09/29 11:24:18;;;;;;;15.02;6.30;;;22.60;99.90;;;;;;5039527;28;20489;-84
2023/09/29 11:26:48;;;;;;;15.23;7.00;;;22.70;99.90;;;;;;5041581;28;20030;-85
2023/09/29 11:29:43;;;;;;;17.73;7.35;;;22.80;99.90;;;;;;5040867;28;20029;-84
2023/09/29 11:32:08;;;;;;;18.00;7.22;;;22.80;99.90;;;;;;5039325;28;20033;-85
2023/09/29 11:34:36;;;;;;;18.60;7.10;;;22.90;99.90;;;;;;5041813;28;20037;-87
2023/09/29 11:37:02;;;;;;;16.52;6.43;;;22.90;99.90;;;;;;5042501;28;20037;-86
2023/09/29 11:39:28;;;;;;;15.48;6.78;;;23.00;99.90;;;;;;5040482;28;20582;-87
2023/09/29 11:41:57;;;;;;;15.18;6.53;;;23.00;99.90;;;;;;5041777;28;20567;-84
2023/09/29 11:44:23;;;;;;;17.10;6.05;;;23.00;99.90;;;;;;5040831;28;20048;-84
2023/09/29 11:46:49;;;;;;;13.13;5.70;;;23.00;99.90;;;;;;5028476;28;20029;-88
2023/09/29 11:49:15;;;;;;;14.27;6.32;;;23.00;99.90;;;;;;5039902;28;20048;-82
2023/09/29 11:51:40;;;;;;;19.45;6.10;;;23.00;99.90;;;;;;5023744;28;20040;-84
2023/09/29 11:54:06;;;;;;;18.58;6.95;;;23.00;99.90;;;;;;5024664;28;20052;-84
2023/09/29 11:56:36;;;;;;;15.82;5.25;;;23.10;99.90;;;;;;5041218;28;20595;-85
2023/09/29 11:59:01;;;;;;;17.25;5.50;;;23.10;99.90;;;;;;5022676;28;20040;-88
2023/09/29 12:01:29;;;;;;;13.85;5.20;;;23.10;99.90;;;;;;5037732;28;20025;-84
2023/09/29 12:03:57;;;;;;;12.13;5.38;;;23.10;99.90;;;;;;5023495;28;20029;-84
2023/09/29 12:06:25;;;;;;;13.93;4.88;;;23.10;99.90;;;;;;5041484;28;20021;-86
2023/09/29 12:08:53;;;;;;;16.05;5.68;;;23.10;99.90;;;;;;5037462;28;20041;-87
2023/09/29 12:11:20;;;;;;;10.57;5.00;;;23.20;99.90;;;;;;5039720;28;20322;-83
2023/09/29 12:13:47;;;;;;;11.50;4.68;;;23.20;99.90;;;;;;5039717;28;20457;-83
2023/09/29 12:16:15;;;;;;;9.55;3.90;;;23.30;99.90;;;;;;5045822;28;20063;-85
2023/09/29 12:18:40;;;;;;;10.57;4.38;;;23.30;99.90;;;;;;5039343;28;20056;-85
2023/09/29 12:21:11;;;;;;;12.80;4.13;;;23.40;99.90;;;;;;5019797;28;20713;-85
2023/09/29 12:23:37;;;;;;;10.88;4.30;;;23.40;99.90;;;;;;5039224;28;20040;-82
2023/09/29 12:26:08;;;;;;;12.50;4.32;;;23.60;99.90;;;;;;5042297;28;20025;-85
2023/09/29 12:28:36;;;;;;;9.77;4.60;;;23.60;99.90;;;;;;5042784;28;20025;-87
2023/09/29 12:31:02;;;;;;;12.60;4.72;;;23.60;99.90;;;;;;5022911;28;20044;-83
2023/09/29 12:33:33;;;;;;;10.63;4.00;;;23.40;99.90;;;;;;5022758;28;20032;-84
2023/09/29 12:36:01;;;;;;;10.38;3.92;;;23.30;99.90;;;;;;5039839;28;20071;-86
2023/09/29 12:38:27;;;;;;;13.25;4.43;;;23.20;99.90;;;;;;5040009;28;20032;-82
2023/09/29 12:40:52;;;;;;;15.90;4.75;;;23.10;99.90;;;;;;5021775;28;20029;-83
2023/09/29 12:43:18;;;;;;;11.23;3.78;;;23.10;99.90;;;;;;5022759;28;20037;-84
2023/09/29 12:45:44;;;;;;;10.35;4.18;;;23.10;99.90;;;;;;5039140;28;20083;-85
2023/09/29 12:48:09;;;;;;;10.95;4.10;;;23.10;99.90;;;;;;5038004;28;20084;-85